Winton, Australia
Current Conditions -  °F | °C
As of 10:00 PM on Thursday 30 Oct 2014 (Local Time) from YLRE Reporting Station
Clear Clear  
Wind Chill: 82°   Ceiling: Unl
Heat Index: 82°   Visibility: 6mi
Dew Point: 23°   Wind: 5mph
Humidity: 11%   Direction: 310°NW
Pressure: 29.77"   Gusts: NA
Location:  22.38°S, 143.03°E
Report Text: YLRE 301200Z 31004KT CAVOK 28/M05 Q1008
Loading
Personal Weather Stations






























Interactive Weather Map
Tropical Storm Tracking
New forecast layout! Learn more

10-Day Weather Forecast

Advertisements
Track Severe Weather on mobile